sensor_id;sensor_type;location;lat;lon;timestamp;temperature;humidity
32428;DHT22;18882;50.952;4.366;2023-04-24T01:00:42;9.70;99.90
32428;DHT22;18882;50.952;4.366;2023-04-24T01:03:29;9.70;99.90
32428;DHT22;18882;50.952;4.366;2023-04-24T01:05:57;9.80;99.90
32428;DHT22;18882;50.952;4.366;2023-04-24T01:08:24;9.70;99.90
32428;DHT22;18882;50.952;4.366;2023-04-24T01:10:54;9.80;99.90
32428;DHT22;18882;50.952;4.366;2023-04-24T01:13:26;9.70;99.90
32428;DHT22;18882;50.952;4.366;2023-04-24T01:16:05;9.70;99.90
32428;DHT22;18882;50.952;4.366;2023-04-24T01:18:43;9.70;99.90
32428;DHT22;18882;50.952;4.366;2023-04-24T01:21:15;9.70;99.90
32428;DHT22;18882;50.952;4.366;2023-04-24T01:24:02;9.70;99.90
32428;DHT22;18882;50.952;4.366;2023-04-24T01:26:30;9.70;99.90
32428;DHT22;18882;50.952;4.366;2023-04-24T01:29:04;9.60;99.90
32428;DHT22;18882;50.952;4.366;2023-04-24T01:31:33;9.60;99.90
32428;DHT22;18882;50.952;4.366;2023-04-24T01:33:59;9.60;99.90
32428;DHT22;18882;50.952;4.366;2023-04-24T01:36:26;9.70;99.90
32428;DHT22;18882;50.952;4.366;2023-04-24T01:38:52;9.60;99.90
32428;DHT22;18882;50.952;4.366;2023-04-24T01:41:18;9.60;99.90
32428;DHT22;18882;50.952;4.366;2023-04-24T01:43:45;9.70;99.90
32428;DHT22;18882;50.952;4.366;2023-04-24T01:46:11;9.70;99.90
32428;DHT22;18882;50.952;4.366;2023-04-24T01:48:37;9.60;99.90
32428;DHT22;18882;50.952;4.366;2023-04-24T01:51:03;9.60;99.90
32428;DHT22;18882;50.952;4.366;2023-04-24T01:53:34;9.60;99.90
32428;DHT22;18882;50.952;4.366;2023-04-24T01:59:58;9.70;99.90
32428;DHT22;18882;50.952;4.366;2023-04-24T02:02:32;9.60;99.90
32428;DHT22;18882;50.952;4.366;2023-04-24T02:05:25;9.60;99.90
32428;DHT22;18882;50.952;4.366;2023-04-24T02:08:17;9.50;99.90
32428;DHT22;18882;50.952;4.366;2023-04-24T02:10:47;9.60;99.90
32428;DHT22;18882;50.952;4.366;2023-04-24T02:13:23;9.40;99.90
32428;DHT22;18882;50.952;4.366;2023-04-24T02:16:19;9.40;99.90
32428;DHT22;18882;50.952;4.366;2023-04-24T02:18:45;9.30;99.90
32428;DHT22;18882;50.952;4.366;2023-04-24T02:24:04;9.40;99.90
32428;DHT22;18882;50.952;4.366;2023-04-24T02:26:29;9.30;99.90
32428;DHT22;18882;50.952;4.366;2023-04-24T02:29:20;9.40;99.90
32428;DHT22;18882;50.952;4.366;2023-04-24T02:31:56;9.40;99.90
32428;DHT22;18882;50.952;4.366;2023-04-24T02:34:21;9.30;99.90
32428;DHT22;18882;50.952;4.366;2023-04-24T02:36:48;9.40;99.90
32428;DHT22;18882;50.952;4.366;2023-04-24T02:39:20;9.40;99.90
32428;DHT22;18882;50.952;4.366;2023-04-24T02:41:46;9.30;99.90
32428;DHT22;18882;50.952;4.366;2023-04-24T02:44:12;9.30;99.90
32428;DHT22;18882;50.952;4.366;2023-04-24T02:46:37;9.20;99.90
32428;DHT22;18882;50.952;4.366;2023-04-24T02:49:21;9.20;99.90
32428;DHT22;18882;50.952;4.366;2023-04-24T02:52:15;9.30;99.90
32428;DHT22;18882;50.952;4.366;2023-04-24T02:54:54;9.30;99.90
32428;DHT22;18882;50.952;4.366;2023-04-24T02:57:23;9.30;99.90
32428;DHT22;18882;50.952;4.366;2023-04-24T02:59:57;9.30;99.90
32428;DHT22;18882;50.952;4.366;2023-04-24T03:02:50;9.20;99.90
32428;DHT22;18882;50.952;4.366;2023-04-24T03:05:33;9.20;99.90
32428;DHT22;18882;50.952;4.366;2023-04-24T03:11:14;9.10;99.90
32428;DHT22;18882;50.952;4.366;2023-04-24T03:36:58;9.30;99.90
32428;DHT22;18882;50.952;4.366;2023-04-24T03:39:24;9.40;99.90
32428;DHT22;18882;50.952;4.366;2023-04-24T03:41:50;9.40;99.90
32428;DHT22;18882;50.952;4.366;2023-04-24T03:44:16;9.30;99.90
32428;DHT22;18882;50.952;4.366;2023-04-24T03:46:41;9.30;99.90
32428;DHT22;18882;50.952;4.366;2023-04-24T03:49:07;9.40;99.90
32428;DHT22;18882;50.952;4.366;2023-04-24T03:51:33;9.50;99.90
32428;DHT22;18882;50.952;4.366;2023-04-24T03:53:58;9.50;99.90
32428;DHT22;18882;50.952;4.366;2023-04-24T03:56:24;9.50;99.90
32428;DHT22;18882;50.952;4.366;2023-04-24T03:58:50;9.50;99.90
32428;DHT22;18882;50.952;4.366;2023-04-24T04:01:16;9.50;99.90
32428;DHT22;18882;50.952;4.366;2023-04-24T04:03:41;9.50;99.90
32428;DHT22;18882;50.952;4.366;2023-04-24T04:06:07;9.40;99.90
32428;DHT22;18882;50.952;4.366;2023-04-24T04:08:33;9.50;99.90
32428;DHT22;18882;50.952;4.366;2023-04-24T04:10:58;9.50;99.90
32428;DHT22;18882;50.952;4.366;2023-04-24T04:13:24;9.60;99.90
32428;DHT22;18882;50.952;4.366;2023-04-24T04:15:50;9.50;99.90
32428;DHT22;18882;50.952;4.366;2023-04-24T04:18:16;9.60;99.90
32428;DHT22;18882;50.952;4.366;2023-04-24T04:20:42;9.60;99.90
32428;DHT22;18882;50.952;4.366;2023-04-24T04:23:07;9.60;99.90
32428;DHT22;18882;50.952;4.366;2023-04-24T04:25:40;9.50;99.90
32428;DHT22;18882;50.952;4.366;2023-04-24T04:28:06;9.50;99.90
32428;DHT22;18882;50.952;4.366;2023-04-24T04:30:32;9.60;99.90
32428;DHT22;18882;50.952;4.366;2023-04-24T04:32:58;9.50;99.90
32428;DHT22;18882;50.952;4.366;2023-04-24T04:35:24;9.50;99.90
32428;DHT22;18882;50.952;4.366;2023-04-24T04:37:50;9.40;99.90
32428;DHT22;18882;50.952;4.366;2023-04-24T04:40:17;9.50;99.90
32428;DHT22;18882;50.952;4.366;2023-04-24T04:42:42;9.40;99.90
32428;DHT22;18882;50.952;4.366;2023-04-24T04:45:11;9.40;99.90
32428;DHT22;18882;50.952;4.366;2023-04-24T04:47:37;9.30;99.90
32428;DHT22;18882;50.952;4.366;2023-04-24T04:50:04;9.40;99.90
32428;DHT22;18882;50.952;4.366;2023-04-24T04:52:31;9.40;99.90
32428;DHT22;18882;50.952;4.366;2023-04-24T04:54:56;9.30;99.90
32428;DHT22;18882;50.952;4.366;2023-04-24T04:57:22;9.40;99.90
32428;DHT22;18882;50.952;4.366;2023-04-24T04:59:48;9.30;99.90
32428;DHT22;18882;50.952;4.366;2023-04-24T05:02:14;9.40;99.90
32428;DHT22;18882;50.952;4.366;2023-04-24T05:04:39;9.30;99.90
32428;DHT22;18882;50.952;4.366;2023-04-24T05:07:05;9.30;99.90
32428;DHT22;18882;50.952;4.366;2023-04-24T05:09:31;9.40;99.90
32428;DHT22;18882;50.952;4.366;2023-04-24T05:11:57;9.30;99.90
32428;DHT22;18882;50.952;4.366;2023-04-24T05:14:23;9.40;99.90
32428;DHT22;18882;50.952;4.366;2023-04-24T05:16:48;9.40;99.90
32428;DHT22;18882;50.952;4.366;2023-04-24T05:19:14;9.40;99.90
32428;DHT22;18882;50.952;4.366;2023-04-24T05:21:42;9.30;99.90
32428;DHT22;18882;50.952;4.366;2023-04-24T05:24:08;9.20;99.90
32428;DHT22;18882;50.952;4.366;2023-04-24T05:26:33;9.20;99.90
32428;DHT22;18882;50.952;4.366;2023-04-24T05:29:01;9.30;99.90
32428;DHT22;18882;50.952;4.366;2023-04-24T05:31:26;9.30;99.90
32428;DHT22;18882;50.952;4.366;2023-04-24T05:33:52;9.30;99.90
32428;DHT22;18882;50.952;4.366;2023-04-24T05:36:18;9.30;99.90
32428;DHT22;18882;50.952;4.366;2023-04-24T05:38:44;9.40;99.90
32428;DHT22;18882;50.952;4.366;2023-04-24T05:41:09;9.40;99.90
32428;DHT22;18882;50.952;4.366;2023-04-24T05:43:35;9.50;99.90
32428;DHT22;18882;50.952;4.366;2023-04-24T05:46:01;9.40;99.90
32428;DHT22;18882;50.952;4.366;2023-04-24T05:48:27;9.30;99.90
32428;DHT22;18882;50.952;4.366;2023-04-24T05:50:52;9.40;99.90
32428;DHT22;18882;50.952;4.366;2023-04-24T05:53:18;9.40;99.90
32428;DHT22;18882;50.952;4.366;2023-04-24T05:55:53;9.40;99.90
32428;DHT22;18882;50.952;4.366;2023-04-24T05:58:19;9.30;99.90
32428;DHT22;18882;50.952;4.366;2023-04-24T06:00:44;9.30;99.90
32428;DHT22;18882;50.952;4.366;2023-04-24T06:03:12;9.30;99.90
32428;DHT22;18882;50.952;4.366;2023-04-24T06:05:37;9.20;99.90
32428;DHT22;18882;50.952;4.366;2023-04-24T06:08:03;9.20;99.90
32428;DHT22;18882;50.952;4.366;2023-04-24T06:10:29;9.30;99.90
32428;DHT22;18882;50.952;4.366;2023-04-24T06:12:55;9.30;99.90
32428;DHT22;18882;50.952;4.366;2023-04-24T06:15:30;9.30;99.90
32428;DHT22;18882;50.952;4.366;2023-04-24T06:17:56;9.30;99.90
32428;DHT22;18882;50.952;4.366;2023-04-24T06:20:22;9.30;99.90
32428;DHT22;18882;50.952;4.366;2023-04-24T06:22:48;9.40;99.90
32428;DHT22;18882;50.952;4.366;2023-04-24T06:25:30;9.40;99.90
32428;DHT22;18882;50.952;4.366;2023-04-24T06:28:05;9.30;99.90
32428;DHT22;18882;50.952;4.366;2023-04-24T06:30:31;9.40;99.90
32428;DHT22;18882;50.952;4.366;2023-04-24T06:32:57;9.30;99.90
32428;DHT22;18882;50.952;4.366;2023-04-24T06:35:23;9.30;99.90
32428;DHT22;18882;50.952;4.366;2023-04-24T06:37:48;9.30;99.90
32428;DHT22;18882;50.952;4.366;2023-04-24T06:40:14;9.40;99.90
32428;DHT22;18882;50.952;4.366;2023-04-24T06:42:40;9.40;99.90
32428;DHT22;18882;50.952;4.366;2023-04-24T06:45:06;9.40;99.90
32428;DHT22;18882;50.952;4.366;2023-04-24T06:47:43;9.40;99.90
32428;DHT22;18882;50.952;4.366;2023-04-24T06:50:30;9.50;99.90
32428;DHT22;18882;50.952;4.366;2023-04-24T06:53:02;9.50;99.90
32428;DHT22;18882;50.952;4.366;2023-04-24T06:55:28;9.60;99.90
32428;DHT22;18882;50.952;4.366;2023-04-24T06:58:05;9.70;99.90
32428;DHT22;18882;50.952;4.366;2023-04-24T07:04:50;9.70;99.90
32428;DHT22;18882;50.952;4.366;2023-04-24T07:08:06;9.80;99.90
32428;DHT22;18882;50.952;4.366;2023-04-24T07:11:18;9.80;99.90
32428;DHT22;18882;50.952;4.366;2023-04-24T07:13:43;9.80;99.90
32428;DHT22;18882;50.952;4.366;2023-04-24T07:16:09;9.80;99.90
32428;DHT22;18882;50.952;4.366;2023-04-24T07:18:35;9.80;99.90
32428;DHT22;18882;50.952;4.366;2023-04-24T07:21:12;9.80;99.90
32428;DHT22;18882;50.952;4.366;2023-04-24T07:23:41;9.90;99.90
32428;DHT22;18882;50.952;4.366;2023-04-24T07:26:06;9.90;99.90
32428;DHT22;18882;50.952;4.366;2023-04-24T07:28:32;10.00;99.90
32428;DHT22;18882;50.952;4.366;2023-04-24T07:31:19;10.10;99.90
32428;DHT22;18882;50.952;4.366;2023-04-24T07:37:46;10.20;99.90
32428;DHT22;18882;50.952;4.366;2023-04-24T07:40:15;10.20;99.90
32428;DHT22;18882;50.952;4.366;2023-04-24T07:42:41;10.20;99.90
32428;DHT22;18882;50.952;4.366;2023-04-24T07:45:07;10.30;99.90
32428;DHT22;18882;50.952;4.366;2023-04-24T07:47:33;10.40;99.90
32428;DHT22;18882;50.952;4.366;2023-04-24T07:49:59;10.40;99.90
32428;DHT22;18882;50.952;4.366;2023-04-24T07:52:25;10.50;99.90
32428;DHT22;18882;50.952;4.366;2023-04-24T07:54:51;10.60;99.90
32428;DHT22;18882;50.952;4.366;2023-04-24T07:57:18;10.70;99.90
32428;DHT22;18882;50.952;4.366;2023-04-24T07:59:46;10.70;99.90
32428;DHT22;18882;50.952;4.366;2023-04-24T08:02:18;10.60;99.90
32428;DHT22;18882;50.952;4.366;2023-04-24T08:04:44;10.60;99.90
32428;DHT22;18882;50.952;4.366;2023-04-24T08:07:10;10.60;99.90
32428;DHT22;18882;50.952;4.366;2023-04-24T08:09:38;10.70;99.90
32428;DHT22;18882;50.952;4.366;2023-04-24T08:12:04;10.70;99.90
32428;DHT22;18882;50.952;4.366;2023-04-24T08:17:40;10.70;99.90
32428;DHT22;18882;50.952;4.366;2023-04-24T08:20:06;10.90;99.90
32428;DHT22;18882;50.952;4.366;2023-04-24T08:22:35;11.20;99.90
32428;DHT22;18882;50.952;4.366;2023-04-24T08:25:01;11.60;99.90
32428;DHT22;18882;50.952;4.366;2023-04-24T08:27:30;11.90;99.90
32428;DHT22;18882;50.952;4.366;2023-04-24T08:29:56;12.30;99.90
32428;DHT22;18882;50.952;4.366;2023-04-24T08:32:22;12.50;99.90
32428;DHT22;18882;50.952;4.366;2023-04-24T08:35:14;12.80;99.90
32428;DHT22;18882;50.952;4.366;2023-04-24T08:38:33;13.00;99.90
32428;DHT22;18882;50.952;4.366;2023-04-24T08:44:59;12.20;99.90
32428;DHT22;18882;50.952;4.366;2023-04-24T08:48:09;11.90;99.90
32428;DHT22;18882;50.952;4.366;2023-04-24T08:51:06;11.70;99.90
32428;DHT22;18882;50.952;4.366;2023-04-24T08:53:33;11.60;99.90
32428;DHT22;18882;50.952;4.366;2023-04-24T08:56:15;11.60;99.90
32428;DHT22;18882;50.952;4.366;2023-04-24T08:59:53;11.70;99.90
32428;DHT22;18882;50.952;4.366;2023-04-24T09:02:42;11.70;99.90
32428;DHT22;18882;50.952;4.366;2023-04-24T09:09:55;12.20;99.90
32428;DHT22;18882;50.952;4.366;2023-04-24T09:15:39;13.50;99.90
32428;DHT22;18882;50.952;4.366;2023-04-24T10:10:40;13.40;99.90
32428;DHT22;18882;50.952;4.366;2023-04-24T10:17:16;13.80;99.90
32428;DHT22;18882;50.952;4.366;2023-04-24T10:24:12;13.90;99.90
32428;DHT22;18882;50.952;4.366;2023-04-24T10:30:26;13.30;99.90
32428;DHT22;18882;50.952;4.366;2023-04-24T10:33:22;13.30;99.90
32428;DHT22;18882;50.952;4.366;2023-04-24T10:35:50;13.20;99.90
32428;DHT22;18882;50.952;4.366;2023-04-24T10:38:21;13.20;99.90
32428;DHT22;18882;50.952;4.366;2023-04-24T10:47:40;14.00;99.90
32428;DHT22;18882;50.952;4.366;2023-04-24T10:50:10;14.30;99.90
32428;DHT22;18882;50.952;4.366;2023-04-24T10:52:49;14.50;99.90
32428;DHT22;18882;50.952;4.366;2023-04-24T10:55:29;14.80;99.90
32428;DHT22;18882;50.952;4.366;2023-04-24T10:58:03;14.80;99.90
32428;DHT22;18882;50.952;4.366;2023-04-24T11:00:29;14.60;99.90
32428;DHT22;18882;50.952;4.366;2023-04-24T11:06:31;14.10;99.90
32428;DHT22;18882;50.952;4.366;2023-04-24T11:16:39;15.10;99.90
32428;DHT22;18882;50.952;4.366;2023-04-24T11:19:38;14.90;99.90
32428;DHT22;18882;50.952;4.366;2023-04-24T11:26:56;14.30;99.90
32428;DHT22;18882;50.952;4.366;2023-04-24T11:37:06;13.90;99.90
32428;DHT22;18882;50.952;4.366;2023-04-24T11:39:36;14.20;99.90
32428;DHT22;18882;50.952;4.366;2023-04-24T11:45:59;14.20;99.90
32428;DHT22;18882;50.952;4.366;2023-04-24T11:49:02;14.00;99.90
32428;DHT22;18882;50.952;4.366;2023-04-24T11:54:07;14.80;99.90
32428;DHT22;18882;50.952;4.366;2023-04-24T11:56:33;15.10;99.90
32428;DHT22;18882;50.952;4.366;2023-04-24T11:58:59;15.20;99.90
32428;DHT22;18882;50.952;4.366;2023-04-24T12:01:24;15.30;99.90
32428;DHT22;18882;50.952;4.366;2023-04-24T12:03:51;15.20;99.90
32428;DHT22;18882;50.952;4.366;2023-04-24T12:06:24;15.00;99.90
32428;DHT22;18882;50.952;4.366;2023-04-24T12:08:52;14.80;99.90
32428;DHT22;18882;50.952;4.366;2023-04-24T12:11:20;14.70;99.90
32428;DHT22;18882;50.952;4.366;2023-04-24T12:13:46;14.60;99.90
32428;DHT22;18882;50.952;4.366;2023-04-24T12:16:11;14.60;99.90
32428;DHT22;18882;50.952;4.366;2023-04-24T12:18:42;14.50;99.90
32428;DHT22;18882;50.952;4.366;2023-04-24T12:21:19;14.60;99.90
32428;DHT22;18882;50.952;4.366;2023-04-24T12:23:45;14.50;99.90
32428;DHT22;18882;50.952;4.366;2023-04-24T12:26:19;14.70;99.90
32428;DHT22;18882;50.952;4.366;2023-04-24T12:28:47;14.80;99.90
32428;DHT22;18882;50.952;4.366;2023-04-24T12:31:15;14.80;99.90
32428;DHT22;18882;50.952;4.366;2023-04-24T12:33:41;14.70;99.90
32428;DHT22;18882;50.952;4.366;2023-04-24T12:36:09;14.80;99.90
32428;DHT22;18882;50.952;4.366;2023-04-24T12:38:35;14.80;99.90
32428;DHT22;18882;50.952;4.366;2023-04-24T12:41:08;14.60;99.90
32428;DHT22;18882;50.952;4.366;2023-04-24T12:44:17;14.60;99.90
32428;DHT22;18882;50.952;4.366;2023-04-24T12:46:58;14.50;99.90
32428;DHT22;18882;50.952;4.366;2023-04-24T12:53:04;14.50;99.90
32428;DHT22;18882;50.952;4.366;2023-04-24T13:02:21;15.10;99.90
32428;DHT22;18882;50.952;4.366;2023-04-24T13:04:48;15.40;99.90
32428;DHT22;18882;50.952;4.366;2023-04-24T13:07:14;15.40;99.90
32428;DHT22;18882;50.952;4.366;2023-04-24T13:09:41;15.50;99.90
32428;DHT22;18882;50.952;4.366;2023-04-24T13:12:07;15.70;99.90
32428;DHT22;18882;50.952;4.366;2023-04-24T13:14:33;15.90;99.90
32428;DHT22;18882;50.952;4.366;2023-04-24T13:16:59;15.50;99.90
32428;DHT22;18882;50.952;4.366;2023-04-24T13:23:30;15.10;99.90
32428;DHT22;18882;50.952;4.366;2023-04-24T13:26:43;15.00;99.90
32428;DHT22;18882;50.952;4.366;2023-04-24T13:29:35;15.10;99.90
32428;DHT22;18882;50.952;4.366;2023-04-24T13:35:07;14.70;99.90
32428;DHT22;18882;50.952;4.366;2023-04-24T13:37:33;14.50;99.90
32428;DHT22;18882;50.952;4.366;2023-04-24T13:50:13;14.80;99.90
32428;DHT22;18882;50.952;4.366;2023-04-24T13:52:48;14.80;99.90
32428;DHT22;18882;50.952;4.366;2023-04-24T13:55:34;14.80;99.90
32428;DHT22;18882;50.952;4.366;2023-04-24T14:04:50;15.30;99.90
32428;DHT22;18882;50.952;4.366;2023-04-24T14:07:16;15.40;99.90
32428;DHT22;18882;50.952;4.366;2023-04-24T14:09:41;15.40;99.90
32428;DHT22;18882;50.952;4.366;2023-04-24T14:12:07;14.70;99.90
32428;DHT22;18882;50.952;4.366;2023-04-24T14:14:33;14.60;99.90
32428;DHT22;18882;50.952;4.366;2023-04-24T14:17:14;14.20;99.90
32428;DHT22;18882;50.952;4.366;2023-04-24T14:19:58;14.40;99.90
32428;DHT22;18882;50.952;4.366;2023-04-24T14:22:26;14.60;99.90
32428;DHT22;18882;50.952;4.366;2023-04-24T14:24:51;14.80;99.90
32428;DHT22;18882;50.952;4.366;2023-04-24T14:27:17;15.20;99.90
32428;DHT22;18882;50.952;4.366;2023-04-24T14:29:43;15.20;99.90
32428;DHT22;18882;50.952;4.366;2023-04-24T14:32:10;15.10;99.90
32428;DHT22;18882;50.952;4.366;2023-04-24T14:34:36;15.10;99.90
32428;DHT22;18882;50.952;4.366;2023-04-24T14:37:02;14.80;99.90
32428;DHT22;18882;50.952;4.366;2023-04-24T14:39:28;14.40;99.90
32428;DHT22;18882;50.952;4.366;2023-04-24T14:41:54;13.90;99.90
32428;DHT22;18882;50.952;4.366;2023-04-24T14:44:20;13.50;99.90
32428;DHT22;18882;50.952;4.366;2023-04-24T14:53:36;14.40;99.90
32428;DHT22;18882;50.952;4.366;2023-04-24T14:56:36;14.60;99.90
32428;DHT22;18882;50.952;4.366;2023-04-24T15:16:54;14.90;99.90
32428;DHT22;18882;50.952;4.366;2023-04-24T15:19:40;14.30;99.90
32428;DHT22;18882;50.952;4.366;2023-04-24T15:22:06;14.10;99.90
32428;DHT22;18882;50.952;4.366;2023-04-24T15:24:32;14.20;99.90
32428;DHT22;18882;50.952;4.366;2023-04-24T15:26:59;14.00;99.90
32428;DHT22;18882;50.952;4.366;2023-04-24T15:29:25;13.30;99.90
32428;DHT22;18882;50.952;4.366;2023-04-24T15:31:51;12.90;99.90
32428;DHT22;18882;50.952;4.366;2023-04-24T15:34:17;12.50;99.90
32428;DHT22;18882;50.952;4.366;2023-04-24T15:36:43;12.50;99.90
32428;DHT22;18882;50.952;4.366;2023-04-24T15:39:08;12.70;99.90
32428;DHT22;18882;50.952;4.366;2023-04-24T15:42:18;12.60;99.90
32428;DHT22;18882;50.952;4.366;2023-04-24T15:45:46;12.70;99.90
32428;DHT22;18882;50.952;4.366;2023-04-24T16:05:23;13.70;99.90
32428;DHT22;18882;50.952;4.366;2023-04-24T16:08:55;13.40;99.90
32428;DHT22;18882;50.952;4.366;2023-04-24T16:12:25;13.30;99.90
32428;DHT22;18882;50.952;4.366;2023-04-24T16:15:32;13.30;99.90
32428;DHT22;18882;50.952;4.366;2023-04-24T16:18:38;13.30;99.90
32428;DHT22;18882;50.952;4.366;2023-04-24T16:21:06;13.30;99.90
32428;DHT22;18882;50.952;4.366;2023-04-24T16:23:56;12.80;99.90
32428;DHT22;18882;50.952;4.366;2023-04-24T16:26:34;12.80;99.90
32428;DHT22;18882;50.952;4.366;2023-04-24T16:29:44;13.20;99.90
32428;DHT22;18882;50.952;4.366;2023-04-24T16:32:52;13.20;99.90
32428;DHT22;18882;50.952;4.366;2023-04-24T16:35:56;13.30;99.90
32428;DHT22;18882;50.952;4.366;2023-04-24T16:42:43;12.90;99.90
32428;DHT22;18882;50.952;4.366;2023-04-24T16:46:01;12.30;99.90
32428;DHT22;18882;50.952;4.366;2023-04-24T16:48:46;11.90;99.90
32428;DHT22;18882;50.952;4.366;2023-04-24T16:52:00;11.90;99.90
32428;DHT22;18882;50.952;4.366;2023-04-24T16:54:29;11.80;99.90
32428;DHT22;18882;50.952;4.366;2023-04-24T16:57:27;11.90;99.90
32428;DHT22;18882;50.952;4.366;2023-04-24T17:00:22;12.50;99.90
32428;DHT22;18882;50.952;4.366;2023-04-24T17:03:19;13.10;99.90
32428;DHT22;18882;50.952;4.366;2023-04-24T17:06:08;12.90;99.90
32428;DHT22;18882;50.952;4.366;2023-04-24T17:08:57;13.00;99.90
32428;DHT22;18882;50.952;4.366;2023-04-24T17:12:09;13.00;99.90
32428;DHT22;18882;50.952;4.366;2023-04-24T17:15:00;13.00;99.90
32428;DHT22;18882;50.952;4.366;2023-04-24T17:20:14;13.10;99.90
32428;DHT22;18882;50.952;4.366;2023-04-24T17:23:11;13.10;99.90
32428;DHT22;18882;50.952;4.366;2023-04-24T17:26:02;12.70;99.90
32428;DHT22;18882;50.952;4.366;2023-04-24T17:28:31;12.20;99.90
32428;DHT22;18882;50.952;4.366;2023-04-24T17:31:33;11.80;99.90
32428;DHT22;18882;50.952;4.366;2023-04-24T17:34:22;11.60;99.90
32428;DHT22;18882;50.952;4.366;2023-04-24T17:37:07;11.50;99.90
32428;DHT22;18882;50.952;4.366;2023-04-24T17:39:33;11.40;99.90
32428;DHT22;18882;50.952;4.366;2023-04-24T17:41:59;11.20;99.90
32428;DHT22;18882;50.952;4.366;2023-04-24T17:44:50;11.00;99.90
32428;DHT22;18882;50.952;4.366;2023-04-24T17:47:36;11.00;99.90
32428;DHT22;18882;50.952;4.366;2023-04-24T17:50:03;10.80;99.90
32428;DHT22;18882;50.952;4.366;2023-04-24T17:52:31;10.90;99.90
32428;DHT22;18882;50.952;4.366;2023-04-24T17:55:29;10.90;99.90
32428;DHT22;18882;50.952;4.366;2023-04-24T17:58:33;11.00;99.90
32428;DHT22;18882;50.952;4.366;2023-04-24T18:01:39;11.00;99.90
32428;DHT22;18882;50.952;4.366;2023-04-24T18:04:09;10.80;99.90
32428;DHT22;18882;50.952;4.366;2023-04-24T18:06:35;10.70;99.90
32428;DHT22;18882;50.952;4.366;2023-04-24T18:09:05;10.60;99.90
32428;DHT22;18882;50.952;4.366;2023-04-24T18:11:32;10.50;99.90
32428;DHT22;18882;50.952;4.366;2023-04-24T18:13:59;10.60;99.90
32428;DHT22;18882;50.952;4.366;2023-04-24T18:16:24;10.50;99.90
32428;DHT22;18882;50.952;4.366;2023-04-24T18:19:10;10.50;99.90
32428;DHT22;18882;50.952;4.366;2023-04-24T18:21:57;10.40;99.90
32428;DHT22;18882;50.952;4.366;2023-04-24T18:25:03;10.50;99.90
32428;DHT22;18882;50.952;4.366;2023-04-24T18:27:30;10.60;99.90
32428;DHT22;18882;50.952;4.366;2023-04-24T18:30:29;10.50;99.90
32428;DHT22;18882;50.952;4.366;2023-04-24T18:33:17;10.30;99.90
32428;DHT22;18882;50.952;4.366;2023-04-24T18:36:13;10.50;99.90
32428;DHT22;18882;50.952;4.366;2023-04-24T18:39:01;10.60;99.90
32428;DHT22;18882;50.952;4.366;2023-04-24T18:41:33;10.70;99.90
32428;DHT22;18882;50.952;4.366;2023-04-24T18:44:03;10.40;99.90
32428;DHT22;18882;50.952;4.366;2023-04-24T18:47:09;10.40;99.90
32428;DHT22;18882;50.952;4.366;2023-04-24T18:49:35;10.30;99.90
32428;DHT22;18882;50.952;4.366;2023-04-24T18:52:02;10.20;99.90
32428;DHT22;18882;50.952;4.366;2023-04-24T18:54:34;10.30;99.90
32428;DHT22;18882;50.952;4.366;2023-04-24T18:57:13;10.30;99.90
32428;DHT22;18882;50.952;4.366;2023-04-24T18:59:44;10.30;99.90
32428;DHT22;18882;50.952;4.366;2023-04-24T19:02:13;10.20;99.90
32428;DHT22;18882;50.952;4.366;2023-04-24T19:05:08;10.10;99.90
32428;DHT22;18882;50.952;4.366;2023-04-24T19:07:57;10.00;99.90
32428;DHT22;18882;50.952;4.366;2023-04-24T19:11:14;10.00;99.90
32428;DHT22;18882;50.952;4.366;2023-04-24T19:14:21;10.10;99.90
32428;DHT22;18882;50.952;4.366;2023-04-24T19:17:09;10.20;99.90
32428;DHT22;18882;50.952;4.366;2023-04-24T19:19:55;9.90;99.90
32428;DHT22;18882;50.952;4.366;2023-04-24T19:22:33;9.80;99.90
32428;DHT22;18882;50.952;4.366;2023-04-24T19:25:05;9.70;99.90
32428;DHT22;18882;50.952;4.366;2023-04-24T19:28:19;9.60;99.90
32428;DHT22;18882;50.952;4.366;2023-04-24T19:30:46;9.60;99.90
32428;DHT22;18882;50.952;4.366;2023-04-24T19:33:35;9.60;99.90
32428;DHT22;18882;50.952;4.366;2023-04-24T19:36:23;9.50;99.90
32428;DHT22;18882;50.952;4.366;2023-04-24T19:38:59;9.60;99.90
32428;DHT22;18882;50.952;4.366;2023-04-24T19:41:44;9.80;99.90
32428;DHT22;18882;50.952;4.366;2023-04-24T19:44:18;9.80;99.90
32428;DHT22;18882;50.952;4.366;2023-04-24T19:47:03;9.80;99.90
32428;DHT22;18882;50.952;4.366;2023-04-24T19:49:52;9.90;99.90
32428;DHT22;18882;50.952;4.366;2023-04-24T19:52:26;10.00;99.90
32428;DHT22;18882;50.952;4.366;2023-04-24T19:55:07;10.00;99.90
32428;DHT22;18882;50.952;4.366;2023-04-24T19:57:34;9.90;99.90
32428;DHT22;18882;50.952;4.366;2023-04-24T20:00:19;9.90;99.90
32428;DHT22;18882;50.952;4.366;2023-04-24T20:03:28;10.00;99.90
32428;DHT22;18882;50.952;4.366;2023-04-24T20:06:39;10.00;99.90
32428;DHT22;18882;50.952;4.366;2023-04-24T20:09:06;9.90;99.90
32428;DHT22;18882;50.952;4.366;2023-04-24T20:11:40;9.90;99.90
32428;DHT22;18882;50.952;4.366;2023-04-24T20:14:20;10.00;99.90
32428;DHT22;18882;50.952;4.366;2023-04-24T20:16:54;10.20;99.90
32428;DHT22;18882;50.952;4.366;2023-04-24T20:19:29;9.90;99.90
32428;DHT22;18882;50.952;4.366;2023-04-24T20:21:56;9.70;99.90
32428;DHT22;18882;50.952;4.366;2023-04-24T20:24:41;9.70;99.90
32428;DHT22;18882;50.952;4.366;2023-04-24T20:27:35;9.70;99.90
32428;DHT22;18882;50.952;4.366;2023-04-24T20:30:05;10.00;99.90
32428;DHT22;18882;50.952;4.366;2023-04-24T20:32:34;10.10;99.90
32428;DHT22;18882;50.952;4.366;2023-04-24T20:35:02;10.20;99.90
32428;DHT22;18882;50.952;4.366;2023-04-24T20:37:28;10.40;99.90
32428;DHT22;18882;50.952;4.366;2023-04-24T20:40:03;10.50;99.90
32428;DHT22;18882;50.952;4.366;2023-04-24T20:42:52;10.30;99.90
32428;DHT22;18882;50.952;4.366;2023-04-24T20:45:18;10.10;99.90
32428;DHT22;18882;50.952;4.366;2023-04-24T20:47:45;10.00;99.90
32428;DHT22;18882;50.952;4.366;2023-04-24T20:50:15;10.00;99.90
32428;DHT22;18882;50.952;4.366;2023-04-24T20:52:50;10.00;99.90
32428;DHT22;18882;50.952;4.366;2023-04-24T20:55:25;10.00;99.90
32428;DHT22;18882;50.952;4.366;2023-04-24T20:57:51;10.00;99.90
32428;DHT22;18882;50.952;4.366;2023-04-24T21:00:36;9.50;99.90
32428;DHT22;18882;50.952;4.366;2023-04-24T21:03:06;9.30;99.90
32428;DHT22;18882;50.952;4.366;2023-04-24T21:05:32;9.30;99.90
32428;DHT22;18882;50.952;4.366;2023-04-24T21:07:57;9.30;99.90
32428;DHT22;18882;50.952;4.366;2023-04-24T21:10:24;9.20;99.90
32428;DHT22;18882;50.952;4.366;2023-04-24T21:12:51;9.30;99.90
32428;DHT22;18882;50.952;4.366;2023-04-24T21:15:17;9.30;99.90
32428;DHT22;18882;50.952;4.366;2023-04-24T21:17:43;9.30;99.90
32428;DHT22;18882;50.952;4.366;2023-04-24T21:20:09;9.30;99.90
32428;DHT22;18882;50.952;4.366;2023-04-24T21:22:35;9.30;99.90
32428;DHT22;18882;50.952;4.366;2023-04-24T21:25:01;9.20;99.90
32428;DHT22;18882;50.952;4.366;2023-04-24T21:27:27;9.10;99.90